Norbank — PGIS — position and weather

sailwx.info

Track history (hours):
 
Tides and Currents Weather Stations Pressure Air Temp Water Temp Dewpoint Dewpoint Depression Visibility Wind Speed Wind Dir Waves Ship Positions

Norbank

Operator: P & O Ferries

Last reported at 2017-Oct-22 15:11 UTC. Time now 2017-Oct-22 19:14 UTC.
Position N 53°23' W 005°51'.

Length 167 m; draft 5.7 m.

Type: Ship (hazmat cat A). MMSI: 246213000.

Date/timePositionNaut miles runAvg speedWind from/ knotsBaromVisibWave heightAir tempDewpointWater temp
2017-Oct-22 15:11N 53°23' W 005°51'317.2
2017-Oct-22 15:00N 53°22' W 005°56'815.9
2017-Oct-22 14:31N 53°21' W 006°09'3 0.2
2017-Oct-21 22:16N 53°21' W 006°13'0 0.0
2017-Oct-21 21:52N 53°21' W 006°13'0 0.0
2017-Oct-21 16:17N 53°21' W 006°13'0 0.0
2017-Oct-21 12:12N 53°21' W 006°13'0 0.0
2017-Oct-21 12:00N 53°21' W 006°13'2 3.1
2017-Oct-21 11:30N 53°21' W 006°11'714.2
2017-Oct-21 11:00N 53°22' W 005°59'7812.6
2017-Oct-21 04:47N 53°34' W 003°49'517.0
2017-Oct-21 04:30N 53°34' W 003°41'917.1
2017-Oct-21 04:00N 53°33' W 003°27'917.3
2017-Oct-21 03:30N 53°31' W 003°12'816.2
2017-Oct-21 03:00N 53°27' W 003°01'0 0.5
2017-Oct-21 02:30N 53°27' W 003°01'0 0.8
2017-Oct-21 01:59N 53°27' W 003°01'0 0.0
2017-Oct-21 01:29N 53°27' W 003°01'0 0.0
2017-Oct-21 00:56N 53°27' W 003°01'0 0.0
2017-Oct-21 00:26N 53°27' W 003°01'0 0.0
2017-Oct-20 23:55N 53°27' W 003°01'0 0.0
2017-Oct-20 23:22N 53°27' W 003°01'0 0.0
2017-Oct-20 22:58N 53°27' W 003°01'0 0.0
2017-Oct-20 22:28N 53°27' W 003°01'0 0.8
2017-Oct-20 22:00N 53°27' W 003°01'0 0.8
2017-Oct-20 21:30N 53°27' W 003°02'815.2
2017-Oct-20 21:00N 53°31' W 003°12'917.2
2017-Oct-20 20:30N 53°32' W 003°27'917.2
2017-Oct-20 20:00N 53°31' W 003°41'917.5
2017-Oct-20 19:30N 53°33' W 003°56'6716.1
2017-Oct-20 15:18N 53°23' W 005°48'516.4
2017-Oct-20 15:00N 53°22' W 005°56'10 8.7
2017-Oct-20 13:50N 53°21' W 006°13'0 0.0
2017-Oct-20 13:08N 53°21' W 006°13'0 0.0
2017-Oct-20 11:56N 53°21' W 006°13'0 0.0
2017-Oct-20 11:19N 53°21' W 006°13'0 0.0
2017-Oct-20 10:34N 53°21' W 006°13'0 0.0
2017-Oct-20 10:28N 53°21' W 006°13'0 0.0
2017-Oct-20 09:58N 53°21' W 006°13'0 0.9
2017-Oct-20 09:30N 53°21' W 006°12'713.8
2017-Oct-20 09:00N 53°21' W 006°01'918.6
2017-Oct-20 08:30N 53°25' W 005°46'7418.2
2017-Oct-20 04:28N 53°34' W 003°44'920.5
2017-Oct-20 04:00N 53°33' W 003°28'1019.6
2017-Oct-20 03:30N 53°32' W 003°11'815.5
2017-Oct-20 03:00N 53°27' W 003°01'0 0.2
2017-Oct-20 02:30N 53°27' W 003°01'0 0.7
2017-Oct-20 01:58N 53°27' W 003°01'0 0.0
2017-Oct-20 01:28N 53°27' W 003°01'0 0.0
2017-Oct-20 00:58N 53°27' W 003°01'0 0.0
2017-Oct-20 00:25N 53°27' W 003°01'0 0.0
2017-Oct-20 00:00N 53°27' W 003°01'0 0.0
2017-Oct-19 23:30N 53°27' W 003°01'0 0.0
2017-Oct-19 23:00N 53°27' W 003°01'0 0.0
2017-Oct-19 22:30N 53°27' W 003°01'0 0.6
2017-Oct-19 22:00N 53°27' W 003°01'0 0.9
2017-Oct-19 21:30N 53°27' W 003°02'815.4
2017-Oct-19 21:00N 53°31' W 003°13'917.3
2017-Oct-19 20:30N 53°31' W 003°28'816.7
2017-Oct-19 20:00N 53°31' W 003°42'816.8
2017-Oct-19 19:30N 53°32' W 003°56'816.5
2017-Oct-19 18:59N 53°34' W 004°10'6818.5
2017-Oct-19 15:20N 53°21' W 006°01'514.5
2017-Oct-19 14:58N 53°21' W 006°10'2 0.6
2017-Oct-19 12:13N 53°21' W 006°13'0 0.0
2017-Oct-19 10:40N 53°21' W 006°13'0 0.5
2017-Oct-19 10:30N 53°21' W 006°13'5 9.1
2017-Oct-19 10:00N 53°20' W 006°05'8517.7
2017-Oct-19 05:11N 53°34' W 003°44'419.9
2017-Oct-19 05:00N 53°34' W 003°38'1020.0
2017-Oct-19 04:30N 53°32' W 003°21'918.3
2017-Oct-19 04:00N 53°31' W 003°06'5 9.8
2017-Oct-19 03:30N 53°27' W 003°01'0 0.2
2017-Oct-19 03:00N 53°27' W 003°01'0 0.7
2017-Oct-19 02:30N 53°27' W 003°01'0 0.0
2017-Oct-19 01:59N 53°27' W 003°01'0 0.0
2017-Oct-19 01:29N 53°27' W 003°01'0 0.0
2017-Oct-19 00:56N 53°27' W 003°01'0 0.0
2017-Oct-19 00:29N 53°27' W 003°01'0 0.0
2017-Oct-18 23:59N 53°27' W 003°01'0 0.0
2017-Oct-18 23:25N 53°27' W 003°01'0 1.0
2017-Oct-18 23:00N 53°27' W 003°01'2 4.5
2017-Oct-18 22:30N 53°28' W 003°04'714.8
2017-Oct-18 22:00N 53°31' W 003°16'815.7
2017-Oct-18 21:30N 53°31' W 003°29'612.8
2017-Oct-18 21:01N 53°31' W 003°40'714.2
2017-Oct-18 20:30N 53°32' W 003°52'713.9
2017-Oct-18 20:01N 53°33' W 004°03'7214.7
2017-Oct-18 15:08N 53°21' W 006°01'216.2
2017-Oct-18 14:59N 53°20' W 006°05'5 1.1
2017-Oct-18 10:34N 53°21' W 006°13'0 0.0
2017-Oct-18 10:29N 53°21' W 006°13'3 5.5
2017-Oct-18 10:00N 53°21' W 006°09'8417.9
2017-Oct-18 05:17N 53°34' W 003°49'619.1
2017-Oct-18 05:00N 53°34' W 003°40'1019.5
2017-Oct-18 04:30N 53°32' W 003°24'917.9
2017-Oct-18 04:00N 53°32' W 003°09'712.9
2017-Oct-18 03:30N 53°27' W 003°01'0 0.0
2017-Oct-18 03:00N 53°27' W 003°01'0 0.7
2017-Oct-18 02:25N 53°27' W 003°01'0 0.0
2017-Oct-18 01:58N 53°27' W 003°01'0 0.0
2017-Oct-18 01:25N 53°27' W 003°01'0 0.0
2017-Oct-18 00:58N 53°27' W 003°01'0 0.0
2017-Oct-18 00:27N 53°27' W 003°01'0 0.0
2017-Oct-18 00:00N 53°27' W 003°01'0 0.0
2017-Oct-17 23:30N 53°27' W 003°01'0 0.4
2017-Oct-17 23:00N 53°27' W 003°01'0 0.8
2017-Oct-17 22:31N 53°27' W 003°01'815.1
2017-Oct-17 22:00N 53°31' W 003°12'917.3
2017-Oct-17 21:30N 53°31' W 003°26'714.1
2017-Oct-17 21:00N 53°31' W 003°38'713.3
2017-Oct-17 20:30N 53°30' W 003°49'713.8
2017-Oct-17 20:00N 53°30' W 004°01'914.0
2017-Oct-17 19:19N 53°30' W 004°17'6115.8
2017-Oct-17 15:29N 53°22' W 005°57'814.6
2017-Oct-17 14:58N 53°21' W 006°10'2 1.3
2017-Oct-17 13:29N 53°21' W 006°13'0 0.0
2017-Oct-17 10:59N 53°21' W 006°13'1 1.8
2017-Oct-17 10:31N 53°21' W 006°12'916.4
2017-Oct-17 09:59N 53°22' W 005°57'8217.7
2017-Oct-17 05:22N 53°34' W 003°42'718.1
2017-Oct-17 05:00N 53°33' W 003°31'917.5
2017-Oct-17 04:30N 53°32' W 003°16'713.8
2017-Oct-17 04:01N 53°30' W 003°05'4 7.1
2017-Oct-17 03:31N 53°27' W 003°01'0 0.9
2017-Oct-17 03:00N 53°27' W 003°01'0 0.0
2017-Oct-17 02:28N 53°27' W 003°01'0 0.0
2017-Oct-17 01:58N 53°27' W 003°01'0 0.0
2017-Oct-17 01:30N 53°27' W 003°01'0 0.0
2017-Oct-17 01:00N 53°27' W 003°01'0 0.0
2017-Oct-17 00:27N 53°27' W 003°01'0 0.0
2017-Oct-17 00:00N 53°27' W 003°01'0 0.0
2017-Oct-16 23:30N 53°27' W 003°01'0 0.4
2017-Oct-16 22:59N 53°27' W 003°01'0 0.2
2017-Oct-16 22:29N 53°27' W 003°01'0 0.0
2017-Oct-16 21:59N 53°27' W 003°01'0 0.0
2017-Oct-16 21:26N 53°27' W 003°01'0 0.0
2017-Oct-16 20:59N 53°27' W 003°01'0 0.0
2017-Oct-16 20:28N 53°27' W 003°01'0 0.0
2017-Oct-16 19:58N 53°27' W 003°01'0 0.0
2017-Oct-16 19:28N 53°27' W 003°01'0 0.0
2017-Oct-16 18:55N 53°27' W 003°01'0 0.0
2017-Oct-16 18:30N 53°27' W 003°01'0 0.0
2017-Oct-16 18:00N 53°27' W 003°01'0 0.0
2017-Oct-16 17:30N 53°27' W 003°01'0 0.0
2017-Oct-16 17:00N 53°27' W 003°01'0 0.0
2017-Oct-16 16:30N 53°27' W 003°01'0 0.0
2017-Oct-16 15:56N 53°27' W 003°01'0 0.0
2017-Oct-16 15:26N 53°27' W 003°01'0 0.0
2017-Oct-16 14:59N 53°27' W 003°01'0 0.0
2017-Oct-16 13:59N 53°27' W 003°01'0 0.0
2017-Oct-16 13:25N 53°27' W 003°01'0 0.0
2017-Oct-16 12:58N 53°27' W 003°01'0 0.0
2017-Oct-16 12:30N 53°27' W 003°01'0 0.0
2017-Oct-16 12:00N 53°27' W 003°01'0 0.0
2017-Oct-16 11:30N 53°27' W 003°01'0 0.0
2017-Oct-16 11:00N 53°27' W 003°01'0 0.0
2017-Oct-16 10:30N 53°27' W 003°01'0 0.0
2017-Oct-16 10:00N 53°27' W 003°01'0 0.0
2017-Oct-16 09:30N 53°27' W 003°01'0 0.0
2017-Oct-16 09:00N 53°27' W 003°01'0 0.0
2017-Oct-16 08:30N 53°27' W 003°01'0 0.0
2017-Oct-16 08:00N 53°27' W 003°01'0 0.0
2017-Oct-16 07:30N 53°27' W 003°01'0 0.0
2017-Oct-16 07:00N 53°27' W 003°01'0 0.0
2017-Oct-16 06:30N 53°27' W 003°01'0 0.0
2017-Oct-16 06:00N 53°27' W 003°01'0 0.0
2017-Oct-16 05:30N 53°27' W 003°01'0 0.0
2017-Oct-16 05:00N 53°27' W 003°01'0 0.0
2017-Oct-16 04:30N 53°27' W 003°01'0 0.0
2017-Oct-16 04:00N 53°27' W 003°01'0 0.0
2017-Oct-16 03:30N 53°27' W 003°01'0 0.0
2017-Oct-16 03:00N 53°27' W 003°01'0 0.0
2017-Oct-16 02:30N 53°27' W 003°01'0 0.0
2017-Oct-16 02:00N 53°27' W 003°01'0 0.0
2017-Oct-16 01:30N 53°27' W 003°01'0 0.0
2017-Oct-16 01:01N 53°27' W 003°01'0 0.0
2017-Oct-16 00:30N 53°27' W 003°01'0 0.3
2017-Oct-16 00:00N 53°27' W 003°01'0 0.4
2017-Oct-15 23:29N 53°27' W 003°01'0 0.0
2017-Oct-15 22:59N 53°27' W 003°01'0 0.0
2017-Oct-15 22:26N 53°27' W 003°01'0 0.9
2017-Oct-15 21:55N 53°27' W 003°01'0 0.3
2017-Oct-15 21:30N 53°27' W 003°01'714.2
2017-Oct-15 21:00N 53°32' W 003°10'816.4
2017-Oct-15 20:31N 53°31' W 003°24'917.1
2017-Oct-15 20:01N 53°31' W 003°38'816.1
2017-Oct-15 19:30N 53°32' W 003°52'7816.7
2017-Oct-15 14:50N 53°21' W 006°02'7 1.6
2017-Oct-15 10:36N 53°21' W 006°13'0 0.0
2017-Oct-15 04:54N 53°21' W 006°13'1 1.4
2017-Oct-15 04:29N 53°21' W 006°12'612.6
2017-Oct-15 04:00N 53°21' W 006°02'7014.0
2017-Oct-14 23:00N 53°34' W 004°06'714.7
2017-Oct-14 22:30N 53°34' W 003°54'714.8
2017-Oct-14 22:00N 53°33' W 003°42'714.6
2017-Oct-14 21:30N 53°33' W 003°29'816.1
2017-Oct-14 21:00N 53°31' W 003°16'816.2
2017-Oct-14 20:30N 53°28' W 003°04'2 3.8
2017-Oct-14 20:00N 53°27' W 003°01'0 0.7
2017-Oct-14 19:25N 53°27' W 003°01'0 0.0
2017-Oct-14 18:58N 53°27' W 003°01'0 0.0
2017-Oct-14 18:30N 53°27' W 003°01'0 0.0
2017-Oct-14 17:57N 53°27' W 003°01'0 0.0
2017-Oct-14 17:30N 53°27' W 003°01'0 0.0
2017-Oct-14 17:00N 53°27' W 003°01'0 0.0
2017-Oct-14 16:30N 53°27' W 003°01'0 0.0
2017-Oct-14 15:59N 53°27' W 003°01'0 0.9
2017-Oct-14 15:30N 53°27' W 003°01'0 0.3
2017-Oct-14 15:00N 53°27' W 003°01'714.7
2017-Oct-14 14:30N 53°32' W 003°11'816.5
2017-Oct-14 14:00N 53°31' W 003°25'815.2
2017-Oct-14 13:30N 53°31' W 003°38'916.8
2017-Oct-14 13:00N 53°32' W 003°52'816.8
2017-Oct-14 12:30N 53°33' W 004°06'7018.1
2017-Oct-14 08:38N 53°21' W 006°02'415.2
2017-Oct-14 08:22N 53°21' W 006°09'3 0.8
2017-Oct-14 04:59N 53°21' W 006°13'0 0.1
2017-Oct-14 04:03N 53°21' W 006°13'1 4.9
2017-Oct-14 03:47N 53°21' W 006°11'8817.2
2017-Oct-13 22:39N 53°34' W 003°44'215.5
2017-Oct-13 22:30N 53°33' W 003°40'816.5
2017-Oct-13 22:00N 53°33' W 003°27'917.1
2017-Oct-13 21:30N 53°31' W 003°12'816.1
2017-Oct-13 21:00N 53°27' W 003°01'0 0.6
2017-Oct-13 20:30N 53°27' W 003°01'0 0.8
2017-Oct-13 19:58N 53°27' W 003°01'0 0.0
2017-Oct-13 19:27N 53°27' W 003°01'0 0.0
2017-Oct-13 18:54N 53°27' W 003°01'0 0.0
2017-Oct-13 18:30N 53°27' W 003°01'0 0.0
2017-Oct-13 17:57N 53°27' W 003°01'0 0.0
2017-Oct-13 17:27N 53°27' W 003°01'0 0.0
2017-Oct-13 16:56N 53°27' W 003°01'0 0.5
2017-Oct-13 16:30N 53°27' W 003°01'0 0.5
2017-Oct-13 16:00N 53°27' W 003°01'1 1.4
2017-Oct-13 15:30N 53°26' W 003°01'0 0.5
2017-Oct-13 15:01N 53°26' W 003°01'815.5
2017-Oct-13 14:30N 53°32' W 003°10'917.9
2017-Oct-13 14:01N 53°31' W 003°25'918.4
2017-Oct-13 13:30N 53°31' W 003°41'918.5
2017-Oct-13 13:00N 53°31' W 003°56'7517.6
2017-Oct-13 08:47N 53°20' W 005°60'415.8
2017-Oct-13 08:30N 53°20' W 006°07'4 1.6
2017-Oct-13 06:13N 53°21' W 006°13'0 0.0
2017-Oct-13 04:37N 53°21' W 006°13'0 0.0
2017-Oct-13 04:22N 53°21' W 006°13'1 1.6
2017-Oct-13 04:00N 53°21' W 006°12'814.6
2017-Oct-13 03:26N 53°22' W 005°58'8418.0
2017-Oct-12 22:46N 53°34' W 003°39'519.0
2017-Oct-12 22:30N 53°33' W 003°30'919.0
2017-Oct-12 22:00N 53°31' W 003°15'815.5
2017-Oct-12 21:30N 53°28' W 003°03'2 3.2
2017-Oct-12 21:00N 53°27' W 003°01'0 0.9
2017-Oct-12 20:30N 53°27' W 003°01'0 0.0
2017-Oct-12 19:56N 53°27' W 003°01'0 0.0
2017-Oct-12 19:28N 53°27' W 003°01'0 0.0
2017-Oct-12 18:58N 53°27' W 003°01'0 0.0
2017-Oct-12 18:28N 53°27' W 003°01'0 0.0
2017-Oct-12 17:52N 53°27' W 003°01'0 0.0
2017-Oct-12 17:30N 53°27' W 003°01'0 0.0
2017-Oct-12 16:57N 53°27' W 003°01'0 0.0
2017-Oct-12 16:30N 53°27' W 003°01'0 0.8
2017-Oct-12 15:58N 53°27' W 003°01'0 0.4
2017-Oct-12 15:30N 53°27' W 003°01'  
Track history (hours):
 
Tides and Currents Weather Stations Pressure Air Temp Water Temp Dewpoint Dewpoint Depression Visibility Wind Speed Wind Dir Waves Ship Positions

Norbank

Operator: P & O Ferries

Last reported at 2017-Oct-22 15:11 UTC. Time now 2017-Oct-22 19:14 UTC.
Position N 53°23' W 005°51'.

Length 167 m; draft 5.7 m.

Type: Ship (hazmat cat A). MMSI: 246213000.

Date/timePositionNaut miles runAvg speedWind from/ knotsBaromVisibWave heightAir tempDewpointWater temp
2017-Oct-22 15:11N 53°23' W 005°51'317.2
2017-Oct-22 15:00N 53°22' W 005°56'815.9
2017-Oct-22 14:31N 53°21' W 006°09'3 0.2
2017-Oct-21 22:16N 53°21' W 006°13'0 0.0
2017-Oct-21 21:52N 53°21' W 006°13'0 0.0
2017-Oct-21 16:17N 53°21' W 006°13'0 0.0
2017-Oct-21 12:12N 53°21' W 006°13'0 0.0
2017-Oct-21 12:00N 53°21' W 006°13'2 3.1
2017-Oct-21 11:30N 53°21' W 006°11'714.2
2017-Oct-21 11:00N 53°22' W 005°59'7812.6
2017-Oct-21 04:47N 53°34' W 003°49'517.0
2017-Oct-21 04:30N 53°34' W 003°41'917.1
2017-Oct-21 04:00N 53°33' W 003°27'917.3
2017-Oct-21 03:30N 53°31' W 003°12'816.2
2017-Oct-21 03:00N 53°27' W 003°01'0 0.5
2017-Oct-21 02:30N 53°27' W 003°01'0 0.8
2017-Oct-21 01:59N 53°27' W 003°01'0 0.0
2017-Oct-21 01:29N 53°27' W 003°01'0 0.0
2017-Oct-21 00:56N 53°27' W 003°01'0 0.0
2017-Oct-21 00:26N 53°27' W 003°01'0 0.0
2017-Oct-20 23:55N 53°27' W 003°01'0 0.0
2017-Oct-20 23:22N 53°27' W 003°01'0 0.0
2017-Oct-20 22:58N 53°27' W 003°01'0 0.0
2017-Oct-20 22:28N 53°27' W 003°01'0 0.8
2017-Oct-20 22:00N 53°27' W 003°01'0 0.8
2017-Oct-20 21:30N 53°27' W 003°02'815.2
2017-Oct-20 21:00N 53°31' W 003°12'917.2
2017-Oct-20 20:30N 53°32' W 003°27'917.2
2017-Oct-20 20:00N 53°31' W 003°41'917.5
2017-Oct-20 19:30N 53°33' W 003°56'6716.1
2017-Oct-20 15:18N 53°23' W 005°48'516.4
2017-Oct-20 15:00N 53°22' W 005°56'10 8.7
2017-Oct-20 13:50N 53°21' W 006°13'0 0.0
2017-Oct-20 13:08N 53°21' W 006°13'0 0.0
2017-Oct-20 11:56N 53°21' W 006°13'0 0.0
2017-Oct-20 11:19N 53°21' W 006°13'0 0.0
2017-Oct-20 10:34N 53°21' W 006°13'0 0.0
2017-Oct-20 10:28N 53°21' W 006°13'0 0.0
2017-Oct-20 09:58N 53°21' W 006°13'0 0.9
2017-Oct-20 09:30N 53°21' W 006°12'713.8
2017-Oct-20 09:00N 53°21' W 006°01'918.6
2017-Oct-20 08:30N 53°25' W 005°46'7418.2
2017-Oct-20 04:28N 53°34' W 003°44'920.5
2017-Oct-20 04:00N 53°33' W 003°28'1019.6
2017-Oct-20 03:30N 53°32' W 003°11'815.5
2017-Oct-20 03:00N 53°27' W 003°01'0 0.2
2017-Oct-20 02:30N 53°27' W 003°01'0 0.7
2017-Oct-20 01:58N 53°27' W 003°01'0 0.0
2017-Oct-20 01:28N 53°27' W 003°01'0 0.0
2017-Oct-20 00:58N 53°27' W 003°01'0 0.0
2017-Oct-20 00:25N 53°27' W 003°01'0 0.0
2017-Oct-20 00:00N 53°27' W 003°01'0 0.0
2017-Oct-19 23:30N 53°27' W 003°01'0 0.0
2017-Oct-19 23:00N 53°27' W 003°01'0 0.0
2017-Oct-19 22:30N 53°27' W 003°01'0 0.6
2017-Oct-19 22:00N 53°27' W 003°01'0 0.9
2017-Oct-19 21:30N 53°27' W 003°02'815.4
2017-Oct-19 21:00N 53°31' W 003°13'917.3
2017-Oct-19 20:30N 53°31' W 003°28'816.7
2017-Oct-19 20:00N 53°31' W 003°42'816.8
2017-Oct-19 19:30N 53°32' W 003°56'816.5
2017-Oct-19 18:59N 53°34' W 004°10'6818.5
2017-Oct-19 15:20N 53°21' W 006°01'514.5
2017-Oct-19 14:58N 53°21' W 006°10'2 0.6
2017-Oct-19 12:13N 53°21' W 006°13'0 0.0
2017-Oct-19 10:40N 53°21' W 006°13'0 0.5
2017-Oct-19 10:30N 53°21' W 006°13'5 9.1
2017-Oct-19 10:00N 53°20' W 006°05'8517.7
2017-Oct-19 05:11N 53°34' W 003°44'419.9
2017-Oct-19 05:00N 53°34' W 003°38'1020.0
2017-Oct-19 04:30N 53°32' W 003°21'918.3
2017-Oct-19 04:00N 53°31' W 003°06'5 9.8
2017-Oct-19 03:30N 53°27' W 003°01'0 0.2
2017-Oct-19 03:00N 53°27' W 003°01'0 0.7
2017-Oct-19 02:30N 53°27' W 003°01'0 0.0
2017-Oct-19 01:59N 53°27' W 003°01'0 0.0
2017-Oct-19 01:29N 53°27' W 003°01'0 0.0
2017-Oct-19 00:56N 53°27' W 003°01'0 0.0
2017-Oct-19 00:29N 53°27' W 003°01'0 0.0
2017-Oct-18 23:59N 53°27' W 003°01'0 0.0
2017-Oct-18 23:25N 53°27' W 003°01'0 1.0
2017-Oct-18 23:00N 53°27' W 003°01'2 4.5
2017-Oct-18 22:30N 53°28' W 003°04'714.8
2017-Oct-18 22:00N 53°31' W 003°16'815.7
2017-Oct-18 21:30N 53°31' W 003°29'612.8
2017-Oct-18 21:01N 53°31' W 003°40'714.2
2017-Oct-18 20:30N 53°32' W 003°52'713.9
2017-Oct-18 20:01N 53°33' W 004°03'7214.7
2017-Oct-18 15:08N 53°21' W 006°01'216.2
2017-Oct-18 14:59N 53°20' W 006°05'5 1.1
2017-Oct-18 10:34N 53°21' W 006°13'0 0.0
2017-Oct-18 10:29N 53°21' W 006°13'3 5.5
2017-Oct-18 10:00N 53°21' W 006°09'8417.9
2017-Oct-18 05:17N 53°34' W 003°49'619.1
2017-Oct-18 05:00N 53°34' W 003°40'1019.5
2017-Oct-18 04:30N 53°32' W 003°24'917.9
2017-Oct-18 04:00N 53°32' W 003°09'712.9
2017-Oct-18 03:30N 53°27' W 003°01'0 0.0
2017-Oct-18 03:00N 53°27' W 003°01'0 0.7
2017-Oct-18 02:25N 53°27' W 003°01'0 0.0
2017-Oct-18 01:58N 53°27' W 003°01'0 0.0
2017-Oct-18 01:25N 53°27' W 003°01'0 0.0
2017-Oct-18 00:58N 53°27' W 003°01'0 0.0
2017-Oct-18 00:27N 53°27' W 003°01'0 0.0
2017-Oct-18 00:00N 53°27' W 003°01'0 0.0
2017-Oct-17 23:30N 53°27' W 003°01'0 0.4
2017-Oct-17 23:00N 53°27' W 003°01'0 0.8
2017-Oct-17 22:31N 53°27' W 003°01'815.1
2017-Oct-17 22:00N 53°31' W 003°12'917.3
2017-Oct-17 21:30N 53°31' W 003°26'714.1
2017-Oct-17 21:00N 53°31' W 003°38'713.3
2017-Oct-17 20:30N 53°30' W 003°49'713.8
2017-Oct-17 20:00N 53°30' W 004°01'914.0
2017-Oct-17 19:19N 53°30' W 004°17'6115.8
2017-Oct-17 15:29N 53°22' W 005°57'814.6
2017-Oct-17 14:58N 53°21' W 006°10'2 1.3
2017-Oct-17 13:29N 53°21' W 006°13'0 0.0
2017-Oct-17 10:59N 53°21' W 006°13'1 1.8
2017-Oct-17 10:31N 53°21' W 006°12'916.4
2017-Oct-17 09:59N 53°22' W 005°57'8217.7
2017-Oct-17 05:22N 53°34' W 003°42'718.1
2017-Oct-17 05:00N 53°33' W 003°31'917.5
2017-Oct-17 04:30N 53°32' W 003°16'713.8
2017-Oct-17 04:01N 53°30' W 003°05'4 7.1
2017-Oct-17 03:31N 53°27' W 003°01'0 0.9
2017-Oct-17 03:00N 53°27' W 003°01'0 0.0
2017-Oct-17 02:28N 53°27' W 003°01'0 0.0
2017-Oct-17 01:58N 53°27' W 003°01'0 0.0
2017-Oct-17 01:30N 53°27' W 003°01'0 0.0
2017-Oct-17 01:00N 53°27' W 003°01'0 0.0
2017-Oct-17 00:27N 53°27' W 003°01'0 0.0
2017-Oct-17 00:00N 53°27' W 003°01'0 0.0
2017-Oct-16 23:30N 53°27' W 003°01'0 0.4
2017-Oct-16 22:59N 53°27' W 003°01'0 0.2
2017-Oct-16 22:29N 53°27' W 003°01'0 0.0
2017-Oct-16 21:59N 53°27' W 003°01'0 0.0
2017-Oct-16 21:26N 53°27' W 003°01'0 0.0
2017-Oct-16 20:59N 53°27' W 003°01'0 0.0
2017-Oct-16 20:28N 53°27' W 003°01'0 0.0
2017-Oct-16 19:58N 53°27' W 003°01'0 0.0
2017-Oct-16 19:28N 53°27' W 003°01'0 0.0
2017-Oct-16 18:55N 53°27' W 003°01'0 0.0
2017-Oct-16 18:30N 53°27' W 003°01'0 0.0
2017-Oct-16 18:00N 53°27' W 003°01'0 0.0
2017-Oct-16 17:30N 53°27' W 003°01'0 0.0
2017-Oct-16 17:00N 53°27' W 003°01'0 0.0
2017-Oct-16 16:30N 53°27' W 003°01'0 0.0
2017-Oct-16 15:56N 53°27' W 003°01'0 0.0
2017-Oct-16 15:26N 53°27' W 003°01'0 0.0
2017-Oct-16 14:59N 53°27' W 003°01'0 0.0
2017-Oct-16 13:59N 53°27' W 003°01'0 0.0
2017-Oct-16 13:25N 53°27' W 003°01'0 0.0
2017-Oct-16 12:58N 53°27' W 003°01'0 0.0
2017-Oct-16 12:30N 53°27' W 003°01'0 0.0
2017-Oct-16 12:00N 53°27' W 003°01'0 0.0
2017-Oct-16 11:30N 53°27' W 003°01'0 0.0
2017-Oct-16 11:00N 53°27' W 003°01'0 0.0
2017-Oct-16 10:30N 53°27' W 003°01'0 0.0
2017-Oct-16 10:00N 53°27' W 003°01'0 0.0
2017-Oct-16 09:30N 53°27' W 003°01'0 0.0
2017-Oct-16 09:00N 53°27' W 003°01'0 0.0
2017-Oct-16 08:30N 53°27' W 003°01'0 0.0
2017-Oct-16 08:00N 53°27' W 003°01'0 0.0
2017-Oct-16 07:30N 53°27' W 003°01'0 0.0
2017-Oct-16 07:00N 53°27' W 003°01'0 0.0
2017-Oct-16 06:30N 53°27' W 003°01'0 0.0
2017-Oct-16 06:00N 53°27' W 003°01'0 0.0
2017-Oct-16 05:30N 53°27' W 003°01'0 0.0
2017-Oct-16 05:00N 53°27' W 003°01'0 0.0
2017-Oct-16 04:30N 53°27' W 003°01'0 0.0
2017-Oct-16 04:00N 53°27' W 003°01'0 0.0
2017-Oct-16 03:30N 53°27' W 003°01'0 0.0
2017-Oct-16 03:00N 53°27' W 003°01'0 0.0
2017-Oct-16 02:30N 53°27' W 003°01'0 0.0
2017-Oct-16 02:00N 53°27' W 003°01'0 0.0
2017-Oct-16 01:30N 53°27' W 003°01'0 0.0
2017-Oct-16 01:01N 53°27' W 003°01'0 0.0
2017-Oct-16 00:30N 53°27' W 003°01'0 0.3
2017-Oct-16 00:00N 53°27' W 003°01'0 0.4
2017-Oct-15 23:29N 53°27' W 003°01'0 0.0
2017-Oct-15 22:59N 53°27' W 003°01'0 0.0
2017-Oct-15 22:26N 53°27' W 003°01'0 0.9
2017-Oct-15 21:55N 53°27' W 003°01'0 0.3
2017-Oct-15 21:30N 53°27' W 003°01'714.2
2017-Oct-15 21:00N 53°32' W 003°10'816.4
2017-Oct-15 20:31N 53°31' W 003°24'917.1
2017-Oct-15 20:01N 53°31' W 003°38'816.1
2017-Oct-15 19:30N 53°32' W 003°52'7816.7
2017-Oct-15 14:50N 53°21' W 006°02'7 1.6
2017-Oct-15 10:36N 53°21' W 006°13'0 0.0
2017-Oct-15 04:54N 53°21' W 006°13'1 1.4
2017-Oct-15 04:29N 53°21' W 006°12'612.6
2017-Oct-15 04:00N 53°21' W 006°02'7014.0
2017-Oct-14 23:00N 53°34' W 004°06'714.7
2017-Oct-14 22:30N 53°34' W 003°54'714.8
2017-Oct-14 22:00N 53°33' W 003°42'714.6
2017-Oct-14 21:30N 53°33' W 003°29'816.1
2017-Oct-14 21:00N 53°31' W 003°16'816.2
2017-Oct-14 20:30N 53°28' W 003°04'2 3.8
2017-Oct-14 20:00N 53°27' W 003°01'0 0.7
2017-Oct-14 19:25N 53°27' W 003°01'0 0.0
2017-Oct-14 18:58N 53°27' W 003°01'0 0.0
2017-Oct-14 18:30N 53°27' W 003°01'0 0.0
2017-Oct-14 17:57N 53°27' W 003°01'0 0.0
2017-Oct-14 17:30N 53°27' W 003°01'0 0.0
2017-Oct-14 17:00N 53°27' W 003°01'0 0.0
2017-Oct-14 16:30N 53°27' W 003°01'0 0.0
2017-Oct-14 15:59N 53°27' W 003°01'0 0.9
2017-Oct-14 15:30N 53°27' W 003°01'0 0.3
2017-Oct-14 15:00N 53°27' W 003°01'714.7
2017-Oct-14 14:30N 53°32' W 003°11'816.5
2017-Oct-14 14:00N 53°31' W 003°25'815.2
2017-Oct-14 13:30N 53°31' W 003°38'916.8
2017-Oct-14 13:00N 53°32' W 003°52'816.8
2017-Oct-14 12:30N 53°33' W 004°06'7018.1
2017-Oct-14 08:38N 53°21' W 006°02'415.2
2017-Oct-14 08:22N 53°21' W 006°09'3 0.8
2017-Oct-14 04:59N 53°21' W 006°13'0 0.1
2017-Oct-14 04:03N 53°21' W 006°13'1 4.9
2017-Oct-14 03:47N 53°21' W 006°11'8817.2
2017-Oct-13 22:39N 53°34' W 003°44'215.5
2017-Oct-13 22:30N 53°33' W 003°40'816.5
2017-Oct-13 22:00N 53°33' W 003°27'917.1
2017-Oct-13 21:30N 53°31' W 003°12'816.1
2017-Oct-13 21:00N 53°27' W 003°01'0 0.6
2017-Oct-13 20:30N 53°27' W 003°01'0 0.8
2017-Oct-13 19:58N 53°27' W 003°01'0 0.0
2017-Oct-13 19:27N 53°27' W 003°01'0 0.0
2017-Oct-13 18:54N 53°27' W 003°01'0 0.0
2017-Oct-13 18:30N 53°27' W 003°01'0 0.0
2017-Oct-13 17:57N 53°27' W 003°01'0 0.0
2017-Oct-13 17:27N 53°27' W 003°01'0 0.0
2017-Oct-13 16:56N 53°27' W 003°01'0 0.5
2017-Oct-13 16:30N 53°27' W 003°01'0 0.5
2017-Oct-13 16:00N 53°27' W 003°01'1 1.4
2017-Oct-13 15:30N 53°26' W 003°01'0 0.5
2017-Oct-13 15:01N 53°26' W 003°01'815.5
2017-Oct-13 14:30N 53°32' W 003°10'917.9
2017-Oct-13 14:01N 53°31' W 003°25'918.4
2017-Oct-13 13:30N 53°31' W 003°41'918.5
2017-Oct-13 13:00N 53°31' W 003°56'7517.6
2017-Oct-13 08:47N 53°20' W 005°60'415.8
2017-Oct-13 08:30N 53°20' W 006°07'4 1.6
2017-Oct-13 06:13N 53°21' W 006°13'0 0.0
2017-Oct-13 04:37N 53°21' W 006°13'0 0.0
2017-Oct-13 04:22N 53°21' W 006°13'1 1.6
2017-Oct-13 04:00N 53°21' W 006°12'814.6
2017-Oct-13 03:26N 53°22' W 005°58'8418.0
2017-Oct-12 22:46N 53°34' W 003°39'519.0
2017-Oct-12 22:30N 53°33' W 003°30'919.0
2017-Oct-12 22:00N 53°31' W 003°15'815.5
2017-Oct-12 21:30N 53°28' W 003°03'2 3.2
2017-Oct-12 21:00N 53°27' W 003°01'0 0.9
2017-Oct-12 20:30N 53°27' W 003°01'0 0.0
2017-Oct-12 19:56N 53°27' W 003°01'0 0.0
2017-Oct-12 19:28N 53°27' W 003°01'0 0.0
2017-Oct-12 18:58N 53°27' W 003°01'0 0.0
2017-Oct-12 18:28N 53°27' W 003°01'0 0.0
2017-Oct-12 17:52N 53°27' W 003°01'0 0.0
2017-Oct-12 17:30N 53°27' W 003°01'0 0.0
2017-Oct-12 16:57N 53°27' W 003°01'0 0.0
2017-Oct-12 16:30N 53°27' W 003°01'0 0.8
2017-Oct-12 15:58N 53°27' W 003°01'0 0.4
2017-Oct-12 15:30N 53°27' W 003°01'  

Dump ship's entire track history